createdAt,value
2017-01-26T00:00:11.791Z,0
2017-01-26T00:01:11.720Z,0
2017-01-26T00:02:11.696Z,0
2017-01-26T00:03:11.768Z,0
2017-01-26T00:04:11.844Z,0
2017-01-26T00:05:11.721Z,0
2017-01-26T00:06:11.796Z,0
2017-01-26T00:07:11.694Z,0
2017-01-26T00:08:11.797Z,0
2017-01-26T00:09:11.768Z,0
2017-01-26T00:10:11.728Z,0
2017-01-26T00:11:11.705Z,0
2017-01-26T00:12:11.721Z,0
2017-01-26T00:13:12.921Z,0
2017-01-26T00:14:11.703Z,0
2017-01-26T00:15:12.187Z,0
2017-01-26T00:16:11.842Z,0
2017-01-26T00:17:11.729Z,0
2017-01-26T00:18:11.726Z,0
2017-01-26T00:19:12.067Z,0
2017-01-26T00:20:11.718Z,0
2017-01-26T00:21:11.809Z,0
2017-01-26T00:22:11.735Z,0
2017-01-26T00:23:12.137Z,0
2017-01-26T00:24:12.195Z,0
2017-01-26T00:25:11.715Z,0
2017-01-26T00:26:11.987Z,0
2017-01-26T00:27:11.702Z,0
2017-01-26T00:28:11.704Z,0
2017-01-26T00:29:11.730Z,0
2017-01-26T00:30:11.899Z,0
2017-01-26T00:37:40.168Z,0
2017-01-26T00:37:50.251Z,0
2017-01-26T00:38:50.188Z,0
2017-01-26T00:39:50.384Z,0
2017-01-26T00:40:50.160Z,0
2017-01-26T00:41:50.201Z,0
2017-01-26T00:42:50.474Z,0
2017-01-26T00:43:50.220Z,0
2017-01-26T00:44:50.196Z,0
2017-01-26T00:45:50.262Z,0
2017-01-26T00:46:50.165Z,0
2017-01-26T00:47:50.159Z,0
2017-01-26T00:48:50.194Z,0
2017-01-26T00:49:50.177Z,0
2017-01-26T00:50:50.336Z,0
2017-01-26T00:51:50.181Z,0
2017-01-26T00:52:50.182Z,0
2017-01-26T00:53:50.200Z,0
2017-01-26T00:54:50.170Z,0
2017-01-26T00:55:50.314Z,0
2017-01-26T00:56:50.187Z,0
2017-01-26T00:57:50.212Z,0
2017-01-26T00:58:50.188Z,0
2017-01-26T00:59:50.196Z,0
2017-01-26T01:00:50.214Z,0
2017-01-26T01:01:50.165Z,0
2017-01-26T01:02:50.185Z,0
2017-01-26T01:03:50.457Z,0
2017-01-26T01:04:50.177Z,0
2017-01-26T01:05:50.182Z,0
2017-01-26T01:06:50.191Z,0
2017-01-26T01:07:50.224Z,0
2017-01-26T01:08:50.183Z,0
2017-01-26T01:09:50.253Z,0
2017-01-26T01:10:50.548Z,0
2017-01-26T01:11:50.203Z,0
2017-01-26T01:12:50.184Z,0
2017-01-26T01:13:50.231Z,0
2017-01-26T01:14:50.269Z,0
2017-01-26T01:15:50.278Z,0
2017-01-26T01:16:50.334Z,0
2017-01-26T01:17:50.208Z,0
2017-01-26T01:18:50.186Z,0
2017-01-26T01:19:50.457Z,0
2017-01-26T01:20:50.181Z,0
2017-01-26T01:21:50.189Z,0
2017-01-26T01:22:50.212Z,0
2017-01-26T01:23:50.215Z,0
2017-01-26T01:24:50.204Z,0
2017-01-26T01:25:50.275Z,0
2017-01-26T01:26:50.188Z,0
2017-01-26T01:27:50.356Z,0
2017-01-26T01:28:50.216Z,0
2017-01-26T01:29:50.197Z,0
2017-01-26T01:30:50.275Z,0
2017-01-26T01:31:50.287Z,0
2017-01-26T01:32:50.278Z,0
2017-01-26T01:33:50.195Z,0
2017-01-26T01:34:50.365Z,0
2017-01-26T01:35:50.215Z,0
2017-01-26T01:36:50.222Z,0
2017-01-26T01:37:50.924Z,0
2017-01-26T01:38:50.202Z,0
2017-01-26T01:39:50.232Z,0
2017-01-26T01:40:50.244Z,0
2017-01-26T01:41:50.267Z,0
2017-01-26T01:42:50.570Z,0
2017-01-26T01:43:50.298Z,0
2017-01-26T01:44:50.911Z,0
2017-01-26T01:45:50.223Z,0
2017-01-26T01:46:50.346Z,0
2017-01-26T01:47:50.878Z,0
2017-01-26T01:48:50.232Z,0
2017-01-26T01:49:50.226Z,0
2017-01-26T01:50:50.215Z,0
2017-01-26T01:51:50.368Z,0
2017-01-26T01:52:50.335Z,0
2017-01-26T01:53:50.361Z,0
2017-01-26T01:54:50.228Z,0
2017-01-26T01:55:50.200Z,0
2017-01-26T01:56:50.288Z,0
2017-01-26T01:57:50.237Z,0
2017-01-26T01:58:50.242Z,0
2017-01-26T01:59:50.262Z,0
2017-01-26T02:00:50.256Z,0
2017-01-26T02:01:50.252Z,0
2017-01-26T02:02:50.228Z,0
2017-01-26T02:03:50.219Z,0
2017-01-26T02:04:50.235Z,0
2017-01-26T02:05:50.482Z,0
2017-01-26T02:06:50.238Z,0
2017-01-26T02:07:50.375Z,0
2017-01-26T02:08:50.240Z,0
2017-01-26T02:09:50.312Z,0
2017-01-26T02:10:50.247Z,0
2017-01-26T02:11:50.272Z,0
2017-01-26T02:12:50.250Z,0
2017-01-26T02:13:50.221Z,0
2017-01-26T02:14:50.246Z,0
2017-01-26T02:15:50.266Z,0
2017-01-26T02:16:50.232Z,0
2017-01-26T02:17:50.227Z,0
2017-01-26T02:18:50.227Z,0
2017-01-26T02:19:50.223Z,0
2017-01-26T02:20:50.270Z,0
2017-01-26T02:21:50.253Z,0
2017-01-26T02:22:51.224Z,0
2017-01-26T02:23:50.240Z,0
2017-01-26T02:24:51.146Z,0
2017-01-26T02:25:50.441Z,0
2017-01-26T02:26:50.247Z,0
2017-01-26T02:27:50.230Z,0
2017-01-26T02:28:50.304Z,0
2017-01-26T02:29:50.345Z,0
2017-01-26T02:30:50.232Z,0
2017-01-26T02:31:50.261Z,0
2017-01-26T02:32:50.254Z,0
2017-01-26T02:33:50.234Z,0
2017-01-26T02:34:50.620Z,0
2017-01-26T02:35:50.216Z,0
2017-01-26T02:36:50.223Z,0
2017-01-26T02:37:50.236Z,0
2017-01-26T02:38:50.320Z,0
2017-01-26T02:39:50.256Z,0
2017-01-26T02:40:50.401Z,0
2017-01-26T02:41:50.264Z,0
2017-01-26T02:42:50.254Z,0
2017-01-26T02:43:50.226Z,0
2017-01-26T02:44:50.535Z,0
2017-01-26T02:45:50.215Z,0
2017-01-26T02:46:51.020Z,0
2017-01-26T02:47:50.414Z,0
2017-01-26T02:48:50.238Z,0
2017-01-26T02:49:50.279Z,0
2017-01-26T02:50:50.485Z,0
2017-01-26T02:51:50.237Z,0
2017-01-26T02:52:50.316Z,0
2017-01-26T02:53:50.257Z,0
2017-01-26T02:54:50.267Z,0
2017-01-26T02:55:50.254Z,0
2017-01-26T02:56:50.250Z,0
2017-01-26T02:57:50.384Z,0
2017-01-26T02:58:50.422Z,0
2017-01-26T02:59:50.350Z,0
2017-01-26T03:00:50.245Z,0
2017-01-26T03:01:50.671Z,0
2017-01-26T03:02:50.275Z,0
2017-01-26T03:03:50.271Z,0
2017-01-26T03:04:51.327Z,0
2017-01-26T03:05:50.749Z,0
2017-01-26T03:06:50.260Z,0
2017-01-26T03:07:50.395Z,0
2017-01-26T03:08:50.503Z,0
2017-01-26T03:09:50.494Z,0
2017-01-26T03:10:50.561Z,0
2017-01-26T03:11:50.259Z,0
2017-01-26T03:12:50.250Z,0
2017-01-26T03:13:50.236Z,0
2017-01-26T03:14:50.294Z,0
2017-01-26T03:15:50.301Z,0
2017-01-26T03:16:50.265Z,0
2017-01-26T03:17:50.253Z,0
2017-01-26T03:18:50.290Z,0
2017-01-26T03:19:50.278Z,0
2017-01-26T03:20:50.303Z,0
2017-01-26T03:21:50.344Z,0
2017-01-26T03:22:50.300Z,0
2017-01-26T03:23:50.259Z,0
2017-01-26T03:24:50.335Z,0
2017-01-26T03:25:50.487Z,0
2017-01-26T03:26:50.972Z,0
2017-01-26T03:27:50.266Z,0
2017-01-26T03:28:50.282Z,0
2017-01-26T03:29:50.272Z,0
2017-01-26T03:30:50.252Z,0
2017-01-26T03:31:50.275Z,0
2017-01-26T03:32:50.323Z,0
2017-01-26T03:33:50.428Z,0
2017-01-26T03:34:50.270Z,0
2017-01-26T03:35:50.278Z,0
2017-01-26T03:36:50.299Z,0
2017-01-26T03:37:50.273Z,0
2017-01-26T03:38:50.265Z,0
2017-01-26T03:39:50.257Z,0
2017-01-26T03:40:50.395Z,0
2017-01-26T03:41:50.271Z,0
2017-01-26T03:42:50.276Z,0
2017-01-26T03:43:50.257Z,0
2017-01-26T03:44:50.277Z,0
2017-01-26T03:45:50.277Z,0
2017-01-26T03:46:50.268Z,0
2017-01-26T03:47:50.291Z,0
2017-01-26T03:48:50.295Z,0
2017-01-26T03:49:50.309Z,0
2017-01-26T03:50:50.280Z,0
2017-01-26T03:51:50.310Z,0
2017-01-26T03:52:50.279Z,0
2017-01-26T03:53:50.292Z,0
2017-01-26T03:54:50.298Z,0
2017-01-26T03:55:50.306Z,0
2017-01-26T03:56:50.343Z,0
2017-01-26T03:57:50.291Z,0
2017-01-26T03:58:50.315Z,0
2017-01-26T03:59:50.314Z,0
2017-01-26T04:00:50.367Z,0
2017-01-26T04:01:50.293Z,0
2017-01-26T04:02:50.277Z,0
2017-01-26T04:03:50.306Z,0
2017-01-26T04:04:50.289Z,0
2017-01-26T04:05:50.315Z,0
2017-01-26T04:06:50.309Z,0
2017-01-26T04:07:50.303Z,0
2017-01-26T04:08:50.296Z,0
2017-01-26T04:09:50.284Z,0
2017-01-26T04:10:50.287Z,0
2017-01-26T04:11:50.322Z,0
2017-01-26T04:12:50.316Z,0
2017-01-26T04:13:50.279Z,0
2017-01-26T04:14:50.291Z,0
2017-01-26T04:15:50.326Z,0
2017-01-26T04:16:50.318Z,0
2017-01-26T04:17:50.313Z,0
2017-01-26T04:18:50.301Z,0
2017-01-26T04:19:50.334Z,0
2017-01-26T04:20:50.371Z,0
2017-01-26T04:21:50.361Z,0
2017-01-26T04:22:50.302Z,0
2017-01-26T04:23:50.346Z,0
2017-01-26T04:24:50.288Z,0
2017-01-26T04:25:50.313Z,0
2017-01-26T04:26:50.283Z,0
2017-01-26T04:27:50.345Z,0
2017-01-26T04:28:50.302Z,0
2017-01-26T04:29:50.302Z,0
2017-01-26T04:30:50.305Z,0
2017-01-26T04:31:50.305Z,0
2017-01-26T04:32:50.326Z,0
2017-01-26T04:33:50.289Z,0
2017-01-26T04:34:50.323Z,0
2017-01-26T04:35:50.293Z,0
2017-01-26T04:36:50.341Z,0
2017-01-26T04:37:50.314Z,0
2017-01-26T04:38:50.321Z,0
2017-01-26T04:39:50.306Z,0
2017-01-26T04:40:50.947Z,0
2017-01-26T04:41:50.322Z,0
2017-01-26T04:42:50.284Z,0
2017-01-26T04:43:50.302Z,0
2017-01-26T04:44:50.286Z,0
2017-01-26T04:45:50.316Z,0
2017-01-26T04:46:50.316Z,0
2017-01-26T04:47:50.329Z,0
2017-01-26T04:48:50.306Z,0
2017-01-26T04:49:50.299Z,0
2017-01-26T04:50:50.296Z,0
2017-01-26T04:51:50.316Z,0
2017-01-26T04:52:50.304Z,0
2017-01-26T04:53:50.345Z,0
2017-01-26T04:54:50.300Z,0
2017-01-26T04:55:50.312Z,0
2017-01-26T04:56:50.305Z,0
2017-01-26T04:57:50.281Z,0
2017-01-26T04:58:50.315Z,0
2017-01-26T04:59:50.325Z,0
2017-01-26T05:00:50.317Z,0
2017-01-26T05:01:50.315Z,0
2017-01-26T05:02:50.334Z,0
2017-01-26T05:03:50.351Z,0
2017-01-26T05:04:50.320Z,0
2017-01-26T05:05:50.353Z,0
2017-01-26T05:06:50.399Z,0
2017-01-26T05:07:50.349Z,0
2017-01-26T05:08:50.352Z,0
2017-01-26T05:09:50.359Z,0
2017-01-26T05:10:50.330Z,0
2017-01-26T05:11:50.325Z,0
2017-01-26T05:12:50.352Z,0
2017-01-26T05:13:50.348Z,0
2017-01-26T05:14:50.396Z,0
2017-01-26T05:15:50.334Z,0
2017-01-26T05:16:50.353Z,0
2017-01-26T05:17:50.338Z,0
2017-01-26T05:18:50.327Z,0
2017-01-26T05:19:50.363Z,0
2017-01-26T05:20:50.352Z,0
2017-01-26T05:21:50.348Z,0
2017-01-26T05:22:50.339Z,0
2017-01-26T05:23:50.329Z,0
2017-01-26T05:24:50.365Z,0
2017-01-26T05:25:50.332Z,0
2017-01-26T05:26:50.357Z,0
2017-01-26T05:27:50.318Z,0
2017-01-26T05:28:50.334Z,0
2017-01-26T05:29:50.324Z,0
2017-01-26T05:30:50.328Z,0
2017-01-26T05:31:50.353Z,0
2017-01-26T05:32:50.411Z,0
2017-01-26T05:33:50.367Z,0
2017-01-26T05:34:50.432Z,0
2017-01-26T05:35:50.358Z,0
2017-01-26T05:36:50.336Z,0
2017-01-26T05:37:50.429Z,0
2017-01-26T05:38:50.352Z,0
2017-01-26T05:39:50.336Z,0
2017-01-26T05:40:50.382Z,0
2017-01-26T05:41:50.365Z,0
2017-01-26T05:42:50.327Z,0
2017-01-26T05:43:50.321Z,0
2017-01-26T05:44:50.358Z,0
2017-01-26T05:45:50.375Z,0
2017-01-26T05:46:50.359Z,0
2017-01-26T05:47:50.401Z,0
2017-01-26T05:48:50.363Z,0
2017-01-26T05:49:50.345Z,0
2017-01-26T05:50:50.415Z,0
2017-01-26T05:51:50.372Z,0
2017-01-26T05:52:50.364Z,0
2017-01-26T05:53:50.362Z,0
2017-01-26T05:54:50.350Z,0
2017-01-26T05:55:50.366Z,0
2017-01-26T05:56:50.391Z,0
2017-01-26T05:57:50.368Z,0
2017-01-26T05:58:50.357Z,0
2017-01-26T05:59:50.383Z,0
2017-01-26T06:00:50.374Z,0
2017-01-26T06:01:50.352Z,0
2017-01-26T06:02:50.343Z,0
2017-01-26T06:03:50.364Z,0
2017-01-26T06:04:50.369Z,0
2017-01-26T06:05:50.403Z,0
2017-01-26T06:06:50.370Z,0
2017-01-26T06:07:50.389Z,0
2017-01-26T06:08:50.356Z,0
2017-01-26T06:09:50.360Z,0
2017-01-26T06:10:50.415Z,0
2017-01-26T06:11:50.396Z,0
2017-01-26T06:12:50.378Z,0
2017-01-26T06:13:50.389Z,0
2017-01-26T06:14:50.385Z,0
2017-01-26T06:15:50.390Z,0
2017-01-26T06:16:50.382Z,0
2017-01-26T06:17:50.417Z,0
2017-01-26T06:18:50.358Z,0
2017-01-26T06:19:50.372Z,0
2017-01-26T06:20:50.387Z,0
2017-01-26T06:26:07.225Z,0
2017-01-26T06:26:17.202Z,0
2017-01-26T06:27:17.230Z,0
2017-01-26T06:28:17.245Z,0
2017-01-26T06:29:17.256Z,0
2017-01-26T06:30:17.220Z,0
2017-01-26T06:31:17.259Z,0
2017-01-26T06:32:17.221Z,0
2017-01-26T06:33:17.244Z,0
2017-01-26T06:34:17.233Z,0
2017-01-26T06:35:17.237Z,0
2017-01-26T06:36:17.225Z,0
2017-01-26T06:37:17.236Z,0
2017-01-26T06:38:17.291Z,4
2017-01-26T06:39:17.231Z,4
2017-01-26T06:40:17.260Z,4
2017-01-26T06:41:17.233Z,4
2017-01-26T06:42:17.240Z,0
2017-01-26T06:43:17.235Z,4
2017-01-26T06:44:17.245Z,4
2017-01-26T06:45:17.314Z,4
2017-01-26T06:46:17.261Z,4
2017-01-26T06:47:17.271Z,4
2017-01-26T06:48:18.233Z,4
2017-01-26T06:49:17.334Z,8
2017-01-26T06:50:17.235Z,8
2017-01-26T06:51:17.242Z,8
2017-01-26T06:52:17.255Z,8
2017-01-26T06:53:17.264Z,12
2017-01-26T06:54:17.261Z,16
2017-01-26T06:55:17.277Z,16
2017-01-26T06:56:17.301Z,16
2017-01-26T06:57:17.287Z,20
2017-01-26T06:58:17.246Z,24
2017-01-26T06:59:17.602Z,32
2017-01-26T07:00:17.301Z,36
2017-01-26T07:01:17.285Z,40
2017-01-26T07:02:17.253Z,48
2017-01-26T07:03:17.245Z,56
2017-01-26T07:04:17.657Z,64
2017-01-26T07:05:17.372Z,72
2017-01-26T07:06:17.303Z,80
2017-01-26T07:07:17.268Z,88
2017-01-26T07:08:17.247Z,100
2017-01-26T07:09:17.253Z,112
2017-01-26T07:10:17.308Z,128
2017-01-26T07:11:17.246Z,140
2017-01-26T07:12:17.270Z,156
2017-01-26T07:13:17.283Z,176
2017-01-26T07:14:17.291Z,192
2017-01-26T07:15:17.279Z,212
2017-01-26T07:16:17.271Z,232
2017-01-26T07:17:17.282Z,252
2017-01-26T07:18:17.273Z,272
2017-01-26T07:19:17.295Z,296
2017-01-26T07:20:17.320Z,320
2017-01-26T07:21:17.316Z,348
2017-01-26T07:22:17.272Z,372
2017-01-26T07:23:17.282Z,400
2017-01-26T07:24:17.270Z,424
2017-01-26T07:25:17.279Z,456
2017-01-26T07:26:17.298Z,484
2017-01-26T07:27:17.272Z,516
2017-01-26T07:28:17.305Z,548
2017-01-26T07:29:17.274Z,576
2017-01-26T07:30:17.325Z,608
2017-01-26T07:31:17.268Z,644
2017-01-26T07:32:17.279Z,676
2017-01-26T07:33:17.285Z,708
2017-01-26T07:34:17.288Z,740
2017-01-26T07:35:17.297Z,776
2017-01-26T07:36:17.246Z,812
2017-01-26T07:37:17.339Z,848
2017-01-26T07:38:17.332Z,880
2017-01-26T07:39:17.295Z,916
2017-01-26T07:40:17.322Z,952
2017-01-26T07:41:17.278Z,984
2017-01-26T07:42:17.330Z,1016
2017-01-26T07:43:17.298Z,1052
2017-01-26T07:44:17.306Z,1088
2017-01-26T07:45:17.279Z,1124
2017-01-26T07:46:17.305Z,1160
2017-01-26T07:47:17.319Z,1192
2017-01-26T07:48:17.276Z,1224
2017-01-26T07:49:17.292Z,1256
2017-01-26T07:50:17.283Z,1288
2017-01-26T07:51:17.379Z,1324
2017-01-26T07:52:17.303Z,1356
2017-01-26T07:53:17.303Z,1388
2017-01-26T07:54:17.340Z,1420
2017-01-26T07:55:17.340Z,1452
2017-01-26T07:56:17.302Z,1484
2017-01-26T07:57:17.320Z,1512
2017-01-26T07:58:17.319Z,1544
2017-01-26T07:59:17.290Z,1572
2017-01-26T08:00:17.292Z,1604
2017-01-26T08:01:17.314Z,1632
2017-01-26T08:02:17.293Z,1664
2017-01-26T08:03:17.283Z,1692
2017-01-26T08:04:17.296Z,1724
2017-01-26T08:05:17.302Z,1752
2017-01-26T08:06:17.303Z,1780
2017-01-26T08:07:17.349Z,1804
2017-01-26T08:08:17.307Z,1828
2017-01-26T08:09:17.346Z,1852
2017-01-26T08:10:17.431Z,1880
2017-01-26T08:11:17.301Z,1904
2017-01-26T08:12:17.286Z,1928
2017-01-26T08:13:17.300Z,1956
2017-01-26T08:14:17.305Z,1976
2017-01-26T08:15:17.292Z,1992
2017-01-26T08:16:19.905Z,2012
2017-01-26T08:17:17.417Z,2036
2017-01-26T08:18:17.297Z,2060
2017-01-26T08:19:17.376Z,2080
2017-01-26T08:20:17.864Z,2104
2017-01-26T08:21:17.439Z,2124
2017-01-26T08:22:17.445Z,2144
2017-01-26T08:23:17.387Z,2164
2017-01-26T08:24:17.622Z,2184
2017-01-26T08:25:17.576Z,2204
2017-01-26T08:26:17.437Z,2220
2017-01-26T08:27:17.364Z,2232
2017-01-26T08:28:18.041Z,2256
2017-01-26T08:29:17.333Z,2280
2017-01-26T08:30:17.366Z,2300
2017-01-26T08:31:17.339Z,2312
2017-01-26T08:32:17.309Z,2328
2017-01-26T08:33:17.408Z,2348
2017-01-26T08:34:17.555Z,2360
2017-01-26T08:35:18.753Z,2380
2017-01-26T08:36:17.365Z,2388
2017-01-26T08:37:17.326Z,2408
2017-01-26T08:38:19.828Z,2436
2017-01-26T08:39:17.505Z,2448
2017-01-26T08:40:17.588Z,2456
2017-01-26T08:41:17.421Z,2476
2017-01-26T08:42:17.428Z,2492
2017-01-26T08:43:17.389Z,2512
2017-01-26T08:44:17.398Z,2532
2017-01-26T08:45:17.347Z,2536
2017-01-26T08:46:17.441Z,2552
2017-01-26T08:47:17.394Z,2564
2017-01-26T08:48:18.423Z,2576
2017-01-26T08:49:17.381Z,2592
2017-01-26T08:50:17.407Z,2600
2017-01-26T08:51:17.362Z,2600
2017-01-26T08:52:17.367Z,2612
2017-01-26T08:53:17.376Z,2624
2017-01-26T08:54:17.422Z,2636
2017-01-26T08:55:17.370Z,2636
2017-01-26T08:56:17.477Z,2648
2017-01-26T08:57:17.567Z,2668
2017-01-26T08:58:17.510Z,2668
2017-01-26T08:59:17.460Z,2680
2017-01-26T09:00:17.468Z,2684
2017-01-26T09:01:17.512Z,2692
2017-01-26T09:02:17.416Z,2708
2017-01-26T09:03:17.366Z,2712
2017-01-26T09:04:17.344Z,2720
2017-01-26T09:05:17.333Z,2732
2017-01-26T09:06:17.340Z,2740
2017-01-26T09:07:17.324Z,2600
2017-01-26T09:08:17.372Z,2604
2017-01-26T09:09:17.335Z,2604
2017-01-26T09:10:17.390Z,2604
2017-01-26T09:11:17.439Z,2620
2017-01-26T09:12:17.372Z,2632
2017-01-26T09:13:17.362Z,2636
2017-01-26T09:14:18.041Z,2636
2017-01-26T09:15:17.367Z,2644
2017-01-26T09:16:17.584Z,2648
2017-01-26T09:17:17.375Z,2656
2017-01-26T09:18:17.385Z,2656
2017-01-26T09:19:17.346Z,2664
2017-01-26T09:20:17.357Z,2672
2017-01-26T09:21:17.359Z,2668
2017-01-26T09:22:17.361Z,2672
2017-01-26T09:23:17.398Z,2672
2017-01-26T09:24:17.373Z,2676
2017-01-26T09:25:17.372Z,2688
2017-01-26T09:26:17.344Z,2696
2017-01-26T09:27:17.365Z,2696
2017-01-26T09:28:17.433Z,2856
2017-01-26T09:29:17.357Z,2864
2017-01-26T09:30:17.327Z,2876
2017-01-26T09:31:17.371Z,2880
2017-01-26T09:32:17.318Z,2884
2017-01-26T09:33:17.336Z,2896
2017-01-26T09:34:17.335Z,2896
2017-01-26T09:35:17.391Z,2904
2017-01-26T09:36:17.385Z,2908
2017-01-26T09:37:17.324Z,2924
2017-01-26T09:38:17.365Z,2932
2017-01-26T09:39:17.342Z,2944
2017-01-26T09:40:17.344Z,2952
2017-01-26T09:41:17.331Z,2956
2017-01-26T09:42:17.386Z,2952
2017-01-26T09:43:17.332Z,2964
2017-01-26T09:44:17.321Z,2964
2017-01-26T09:45:17.333Z,2968
2017-01-26T09:46:17.363Z,2988
2017-01-26T09:47:17.324Z,2980
2017-01-26T09:48:17.331Z,2984
2017-01-26T09:49:17.385Z,2988
2017-01-26T09:50:17.379Z,2988
2017-01-26T09:51:17.337Z,2984
2017-01-26T09:52:17.343Z,2980
2017-01-26T09:53:17.351Z,2968
2017-01-26T09:54:17.340Z,2976
2017-01-26T09:55:17.368Z,2980
2017-01-26T09:56:17.336Z,2984
2017-01-26T09:57:17.348Z,2988
2017-01-26T09:58:17.369Z,2988
2017-01-26T09:59:17.370Z,2996
2017-01-26T10:00:17.353Z,3004
2017-01-26T10:01:17.361Z,3000
2017-01-26T10:02:17.367Z,3000
2017-01-26T10:03:17.376Z,3012
2017-01-26T10:04:17.348Z,3004
2017-01-26T10:05:17.358Z,3000
2017-01-26T10:06:17.371Z,3008
2017-01-26T10:07:17.343Z,3008
2017-01-26T10:08:17.373Z,3016
2017-01-26T10:09:17.358Z,3020
2017-01-26T10:10:17.341Z,3016
2017-01-26T10:11:17.338Z,3016
2017-01-26T10:12:17.351Z,3016
2017-01-26T10:13:17.375Z,3020
2017-01-26T10:14:17.379Z,3024
2017-01-26T10:15:17.387Z,3028
2017-01-26T10:16:17.398Z,3032
2017-01-26T10:17:17.366Z,3028
2017-01-26T10:18:17.401Z,3020
2017-01-26T10:19:17.342Z,3020
2017-01-26T10:20:17.352Z,3028
2017-01-26T10:21:17.393Z,3028
2017-01-26T10:22:17.398Z,3032
2017-01-26T10:23:17.363Z,3036
2017-01-26T10:24:17.480Z,3044
2017-01-26T10:25:17.363Z,3044
2017-01-26T10:26:17.420Z,3048
2017-01-26T10:27:17.378Z,3048
2017-01-26T10:28:17.464Z,3052
2017-01-26T10:29:17.515Z,3048
2017-01-26T10:30:17.425Z,3048
2017-01-26T10:31:17.372Z,3056
2017-01-26T10:32:17.380Z,3064
2017-01-26T10:33:17.357Z,3060
2017-01-26T10:34:17.402Z,3056
2017-01-26T10:35:17.387Z,3036
2017-01-26T10:36:17.455Z,3056
2017-01-26T10:37:17.390Z,3072
2017-01-26T10:38:17.379Z,3084
2017-01-26T10:39:17.692Z,3088
2017-01-26T10:40:17.378Z,3084
2017-01-26T10:41:17.441Z,3096
2017-01-26T10:42:17.368Z,3104
2017-01-26T10:43:17.381Z,3112
2017-01-26T10:44:17.469Z,3116
2017-01-26T10:45:17.359Z,3120
2017-01-26T10:46:17.454Z,3120
2017-01-26T10:47:17.365Z,3120
2017-01-26T10:48:17.433Z,3116
2017-01-26T10:49:17.439Z,3120
2017-01-26T10:50:17.399Z,3124
2017-01-26T10:51:17.411Z,3132
2017-01-26T10:52:17.386Z,3136
2017-01-26T10:53:17.381Z,3136
2017-01-26T10:54:17.408Z,3140
2017-01-26T10:55:17.435Z,3140
2017-01-26T10:56:17.391Z,3144
2017-01-26T10:57:17.401Z,3148
2017-01-26T10:58:17.368Z,3148
2017-01-26T10:59:17.452Z,3148
2017-01-26T11:00:17.378Z,3144
2017-01-26T11:01:17.381Z,3152
2017-01-26T11:02:17.430Z,3152
2017-01-26T11:03:17.390Z,3156
2017-01-26T11:04:17.416Z,3156
2017-01-26T11:05:17.478Z,3160
2017-01-26T11:06:17.844Z,3164
2017-01-26T11:07:17.403Z,3156
2017-01-26T11:08:17.390Z,3160
2017-01-26T11:09:17.394Z,3172
2017-01-26T11:10:17.386Z,3172
2017-01-26T11:11:17.408Z,3176
2017-01-26T11:12:17.436Z,3172
2017-01-26T11:13:17.406Z,3164
2017-01-26T11:14:17.451Z,3164
2017-01-26T11:15:17.416Z,3160
2017-01-26T11:16:17.490Z,3160
2017-01-26T11:17:17.405Z,3160
2017-01-26T11:18:17.475Z,3164
2017-01-26T11:19:17.462Z,3176
2017-01-26T11:20:17.458Z,3196
2017-01-26T11:21:17.419Z,3204
2017-01-26T11:22:17.406Z,3212
2017-01-26T11:23:17.439Z,3220
2017-01-26T11:24:17.409Z,3224
2017-01-26T11:25:17.408Z,3224
2017-01-26T11:26:17.421Z,3224
2017-01-26T11:27:17.432Z,3224
2017-01-26T11:28:17.433Z,3220
2017-01-26T11:29:17.976Z,3216
2017-01-26T11:34:34.966Z,3232
2017-01-26T11:34:45.135Z,3232
2017-01-26T11:35:45.073Z,3244
2017-01-26T11:36:45.049Z,3248
2017-01-26T11:37:45.093Z,3260
2017-01-26T11:38:48.574Z,3264
2017-01-26T11:39:45.097Z,3264
2017-01-26T11:40:45.088Z,3256
2017-01-26T11:41:45.161Z,3260
2017-01-26T11:42:45.075Z,3284
2017-01-26T11:43:45.137Z,3304
2017-01-26T11:44:45.131Z,3316
2017-01-26T11:45:45.056Z,3328
2017-01-26T11:46:45.099Z,3324
2017-01-26T11:47:45.013Z,3316
2017-01-26T11:48:45.024Z,3312
2017-01-26T11:49:45.031Z,3316
2017-01-26T11:50:45.037Z,3316
2017-01-26T11:51:45.056Z,3312
2017-01-26T11:52:45.023Z,3308
2017-01-26T11:53:45.062Z,3304
2017-01-26T11:54:45.102Z,3308
2017-01-26T11:55:45.080Z,3308
2017-01-26T11:56:45.164Z,3304
2017-01-26T11:57:45.050Z,3296
2017-01-26T11:58:45.105Z,3284
2017-01-26T11:59:45.052Z,3272
2017-01-26T12:00:45.043Z,3260
2017-01-26T12:01:45.040Z,3248
2017-01-26T12:02:45.104Z,3240
2017-01-26T12:03:45.027Z,3240
2017-01-26T12:04:45.089Z,3236
2017-01-26T12:05:45.092Z,3232
2017-01-26T12:06:45.055Z,3224
2017-01-26T12:07:45.059Z,3224
2017-01-26T12:08:45.048Z,3224
2017-01-26T12:09:45.030Z,3216
2017-01-26T12:10:45.071Z,3216
2017-01-26T12:11:45.045Z,3208
2017-01-26T12:12:45.080Z,3204
2017-01-26T12:13:45.043Z,3204
2017-01-26T12:14:45.041Z,3200
2017-01-26T12:15:45.051Z,3208
2017-01-26T12:16:45.049Z,3208
2017-01-26T12:17:45.045Z,3212
2017-01-26T12:18:45.086Z,3208
2017-01-26T12:19:45.059Z,3204
2017-01-26T12:20:45.053Z,3204
2017-01-26T12:21:45.033Z,3212
2017-01-26T12:22:45.078Z,3220
2017-01-26T12:23:45.041Z,3216
2017-01-26T12:24:45.059Z,3216
2017-01-26T12:25:45.406Z,3216
2017-01-26T12:26:45.046Z,3208
2017-01-26T12:27:45.057Z,3204
2017-01-26T12:28:45.075Z,3204
2017-01-26T12:29:45.047Z,3204
2017-01-26T12:30:45.065Z,3204
2017-01-26T12:31:45.147Z,3204
2017-01-26T12:32:45.087Z,3196
2017-01-26T12:33:45.069Z,3188
2017-01-26T12:34:45.423Z,3184
2017-01-26T12:35:45.154Z,3172
2017-01-26T12:36:45.091Z,3168
2017-01-26T12:37:45.129Z,3160
2017-01-26T12:38:45.209Z,3152
2017-01-26T12:39:45.113Z,3152
2017-01-26T12:40:45.111Z,3148
2017-01-26T12:41:45.117Z,3148
2017-01-26T12:42:45.137Z,3136
2017-01-26T12:43:45.087Z,3132
2017-01-26T12:44:45.242Z,3136
2017-01-26T12:45:45.086Z,3128
2017-01-26T12:46:45.059Z,3120
2017-01-26T12:47:45.186Z,3116
2017-01-26T12:48:45.139Z,3124
2017-01-26T12:49:45.629Z,3124
2017-01-26T12:50:45.090Z,3116
2017-01-26T12:51:45.157Z,3120
2017-01-26T12:52:45.184Z,3124
2017-01-26T12:53:45.166Z,3128
2017-01-26T12:54:45.083Z,3124
2017-01-26T12:55:45.064Z,3120
2017-01-26T12:56:45.056Z,3116
2017-01-26T12:57:45.911Z,3116
2017-01-26T12:58:45.322Z,3120
2017-01-26T12:59:45.068Z,3120
2017-01-26T13:00:45.069Z,3112
2017-01-26T13:01:45.088Z,3108
2017-01-26T13:02:45.092Z,3112
2017-01-26T13:03:45.164Z,3116
2017-01-26T13:04:45.092Z,3104
2017-01-26T13:05:45.077Z,3100
2017-01-26T13:06:45.076Z,3096
2017-01-26T13:07:45.086Z,3088
2017-01-26T13:08:45.060Z,3096
2017-01-26T13:09:45.111Z,3096
2017-01-26T13:10:45.102Z,3092
2017-01-26T13:11:45.182Z,3084
2017-01-26T13:12:45.083Z,3080
2017-01-26T13:13:45.096Z,3072
2017-01-26T13:14:45.110Z,3068
2017-01-26T13:15:45.136Z,3068
2017-01-26T13:16:45.360Z,3064
2017-01-26T13:17:45.128Z,3060
2017-01-26T13:18:45.071Z,3064
2017-01-26T13:19:45.135Z,3052
2017-01-26T13:20:45.121Z,3040
2017-01-26T13:21:45.129Z,3032
2017-01-26T13:22:45.150Z,3024
2017-01-26T13:23:45.112Z,3020
2017-01-26T13:24:45.102Z,3012
2017-01-26T13:25:45.139Z,3008
2017-01-26T13:27:45.198Z,3000
2017-01-26T13:28:45.113Z,2992
2017-01-26T13:29:45.153Z,2984
2017-01-26T13:30:45.236Z,2976
2017-01-26T13:31:45.131Z,2976
2017-01-26T13:32:45.138Z,2968
2017-01-26T13:33:45.117Z,2960
2017-01-26T13:34:45.313Z,2944
2017-01-26T13:35:45.207Z,2936
2017-01-26T13:36:45.383Z,2932
2017-01-26T13:37:45.284Z,2928
2017-01-26T13:38:45.149Z,2920
2017-01-26T13:39:45.200Z,2912
2017-01-26T13:40:45.107Z,2908
2017-01-26T13:41:45.146Z,2900
2017-01-26T13:42:45.114Z,2892
2017-01-26T13:43:45.223Z,2892
2017-01-26T13:44:45.291Z,2888
2017-01-26T13:45:45.161Z,2884
2017-01-26T13:46:45.186Z,2876
2017-01-26T13:47:45.197Z,2872
2017-01-26T13:48:45.147Z,2864
2017-01-26T13:49:45.153Z,2856
2017-01-26T13:50:45.385Z,2852
2017-01-26T13:51:45.103Z,2852
2017-01-26T13:52:45.152Z,2844
2017-01-26T13:53:45.195Z,2832
2017-01-26T13:54:45.189Z,2820
2017-01-26T13:55:45.150Z,2812
2017-01-26T13:56:45.191Z,2808
2017-01-26T13:57:46.078Z,2812
2017-01-26T13:58:45.135Z,2808
2017-01-26T13:59:45.303Z,2804
2017-01-26T14:00:45.106Z,2796
2017-01-26T14:01:45.227Z,2788
2017-01-26T14:02:45.112Z,2784
2017-01-26T14:03:45.491Z,2772
2017-01-26T14:04:45.693Z,2764
2017-01-26T14:05:45.168Z,2756
2017-01-26T14:06:45.405Z,2748
2017-01-26T14:07:45.148Z,2744
2017-01-26T14:08:45.262Z,2736
2017-01-26T14:09:45.261Z,2728
2017-01-26T14:10:45.571Z,2716
2017-01-26T14:11:45.095Z,2712
2017-01-26T14:12:45.782Z,2700
2017-01-26T14:13:45.144Z,2688
2017-01-26T14:14:47.304Z,2680